Cuprija, Serbia
Current Conditions -  °F | °C
As of 3:30 AM on Sunday 26 Oct 2014 (Local Time) from LYKV Reporting Station
Scattered Clouds Scattered Clouds  
Wind Chill: 37°   Ceiling: Unl
Heat Index: 37°   Visibility: 6mi
Dew Point: 37°   Wind: 3mph
Humidity: 100%   Direction: 40°NE
Pressure: 30.33"   Gusts: NA
Location:  43.93°N, 21.38°E
Report Text: LYKV 260130Z 04003KT 9999 SCT033 03/03 Q1027 NOSIG
Loading
Personal Weather Stations






























Interactive Weather Map
Tropical Storm Tracking
New forecast layout! Learn more

10-Day Weather Forecast

Advertisements
Track Severe Weather on mobile